createdAt,value
2022-11-23T00:01:28.742Z,97.45
2022-11-23T00:03:57.762Z,97.27
2022-11-23T00:06:25.455Z,97.24
2022-11-23T00:08:52.480Z,97.34
2022-11-23T00:11:20.251Z,97.38
2022-11-23T00:13:47.213Z,97.54
2022-11-23T00:16:33.982Z,97.78
2022-11-23T00:19:02.000Z,97.77
2022-11-23T00:21:30.556Z,97.69
2022-11-23T00:23:57.179Z,97.14
2022-11-23T00:26:23.620Z,97.02
2022-11-23T00:28:50.175Z,97.15
2022-11-23T00:31:18.555Z,97.32
2022-11-23T00:33:50.558Z,97.13
2022-11-23T00:36:17.377Z,97.12
2022-11-23T00:38:45.042Z,96.92
2022-11-23T00:41:14.925Z,96.82
2022-11-23T00:43:42.080Z,96.91
2022-11-23T00:46:17.591Z,96.82
2022-11-23T00:48:45.910Z,96.93
2022-11-23T00:51:15.605Z,96.62
2022-11-23T00:53:43.075Z,97.16
2022-11-23T00:56:09.958Z,97.54
2022-11-23T00:58:42.728Z,97.16
2022-11-23T01:01:12.867Z,96.75
2022-11-23T01:03:43.199Z,96.14
2022-11-23T01:06:12.747Z,95.49
2022-11-23T01:08:39.442Z,95.09
2022-11-23T01:11:08.243Z,94.88
2022-11-23T01:13:35.951Z,95.62
2022-11-23T01:16:02.395Z,94.97
2022-11-23T01:18:35.375Z,93.26
2022-11-23T01:21:02.023Z,93.05
2022-11-23T01:23:29.614Z,94.86
2022-11-23T01:25:57.155Z,94.42
2022-11-23T01:28:24.888Z,93.33
2022-11-23T01:30:51.350Z,93.18
2022-11-23T01:33:17.742Z,93.39
2022-11-23T01:35:44.185Z,92.90
2022-11-23T01:38:15.122Z,93.12
2022-11-23T01:40:44.579Z,92.97
2022-11-23T01:43:17.280Z,93.42
2022-11-23T01:45:59.339Z,93.94
2022-11-23T01:48:54.662Z,94.57
2022-11-23T01:51:35.848Z,94.84
2022-11-23T01:54:07.293Z,92.78
2022-11-23T01:56:39.691Z,93.58
2022-11-23T01:59:11.191Z,94.24
2022-11-23T02:01:37.981Z,93.05
2022-11-23T02:04:08.519Z,92.86
2022-11-23T02:06:35.277Z,94.02
2022-11-23T02:09:04.793Z,94.75
2022-11-23T02:11:31.285Z,93.82
2022-11-23T02:13:57.817Z,93.41
2022-11-23T02:16:24.447Z,94.09
2022-11-23T02:18:52.161Z,93.88
2022-11-23T02:21:18.928Z,94.79
2022-11-23T02:24:01.716Z,93.10
2022-11-23T02:26:38.284Z,93.88
2022-11-23T02:29:10.038Z,93.92
2022-11-23T02:31:36.775Z,93.64
2022-11-23T02:34:03.332Z,95.35
2022-11-23T02:36:47.597Z,94.59
2022-11-23T02:39:20.873Z,94.86
2022-11-23T02:41:52.718Z,94.87
2022-11-23T02:44:25.246Z,94.27
2022-11-23T02:46:53.235Z,93.32
2022-11-23T02:49:21.756Z,93.37
2022-11-23T02:51:48.197Z,93.79
2022-11-23T02:54:14.615Z,94.35
2022-11-23T02:56:41.495Z,93.87
2022-11-23T02:59:07.897Z,94.46
2022-11-23T03:01:34.373Z,94.32
2022-11-23T03:04:00.799Z,94.79
2022-11-23T03:06:27.292Z,95.17
2022-11-23T03:08:53.887Z,95.32
2022-11-23T03:11:26.229Z,95.33
2022-11-23T03:13:52.679Z,94.77
2022-11-23T03:16:19.167Z,94.96
2022-11-23T03:18:45.577Z,94.86
2022-11-23T03:21:12.015Z,92.80
2022-11-23T03:23:38.550Z,92.27
2022-11-23T03:26:09.808Z,94.02
2022-11-23T03:28:39.041Z,93.75
2022-11-23T03:31:05.584Z,94.30
2022-11-23T03:33:32.046Z,94.18
2022-11-23T03:35:58.470Z,94.17
2022-11-23T03:38:24.892Z,94.39
2022-11-23T03:40:51.291Z,93.62
2022-11-23T03:43:17.746Z,93.09
2022-11-23T03:45:44.174Z,93.01
2022-11-23T03:48:11.298Z,94.57
2022-11-23T03:50:37.701Z,93.57
2022-11-23T03:53:04.168Z,92.91
2022-11-23T03:55:30.559Z,91.95
2022-11-23T03:57:59.633Z,92.00
2022-11-23T04:00:30.630Z,90.87
2022-11-23T04:02:57.283Z,90.96
2022-11-23T04:05:23.762Z,90.31
2022-11-23T04:07:50.497Z,91.64
2022-11-23T04:10:18.581Z,93.26
2022-11-23T04:12:45.728Z,93.63
2022-11-23T04:15:12.499Z,93.82
2022-11-23T04:17:39.005Z,93.94
2022-11-23T04:20:06.204Z,94.31
2022-11-23T04:22:44.833Z,93.20
2022-11-23T04:25:11.338Z,92.57
2022-11-23T04:27:37.795Z,91.50
2022-11-23T04:30:05.352Z,91.69
2022-11-23T04:32:31.797Z,90.12
2022-11-23T04:34:58.183Z,89.96
2022-11-23T04:37:31.875Z,91.12
2022-11-23T04:39:58.266Z,92.25
2022-11-23T04:42:24.719Z,92.04
2022-11-23T04:44:51.113Z,92.32
2022-11-23T04:47:17.577Z,93.23
2022-11-23T04:49:44.065Z,93.31
2022-11-23T04:52:10.568Z,93.77
2022-11-23T04:54:36.994Z,93.21
2022-11-23T04:57:03.468Z,94.09
2022-11-23T04:59:30.314Z,94.01
2022-11-23T05:01:57.028Z,93.83
2022-11-23T05:04:23.444Z,92.67
2022-11-23T05:06:49.865Z,93.30
2022-11-23T05:09:25.499Z,93.77
2022-11-23T05:11:51.938Z,94.10
2022-11-23T05:14:18.359Z,94.35
2022-11-23T05:16:44.777Z,94.29
2022-11-23T05:19:11.283Z,93.21
2022-11-23T05:21:37.875Z,94.25
2022-11-23T05:24:04.547Z,94.93
2022-11-23T05:26:31.063Z,96.04
2022-11-23T05:28:59.733Z,95.03
2022-11-23T05:31:33.644Z,95.98
2022-11-23T05:34:09.488Z,96.30
2022-11-23T05:36:49.281Z,95.81
2022-11-23T05:39:22.264Z,95.75
2022-11-23T05:42:00.608Z,96.79
2022-11-23T05:44:28.227Z,96.41
2022-11-23T05:47:00.013Z,96.79
2022-11-23T05:49:26.542Z,97.03
2022-11-23T05:51:52.974Z,97.48
2022-11-23T05:54:19.525Z,96.88
2022-11-23T05:56:47.967Z,97.40
2022-11-23T05:59:14.529Z,97.09
2022-11-23T06:01:40.959Z,97.23
2022-11-23T06:04:13.412Z,97.88
2022-11-23T06:06:40.255Z,97.71
2022-11-23T06:09:06.726Z,98.38
2022-11-23T06:11:35.420Z,97.46
2022-11-23T06:14:01.892Z,97.43
2022-11-23T06:16:28.494Z,97.23
2022-11-23T06:19:08.789Z,97.56
2022-11-23T06:21:51.891Z,99.05
2022-11-23T06:24:18.286Z,99.41
2022-11-23T06:26:44.695Z,99.77
2022-11-23T06:29:11.116Z,99.21
2022-11-23T06:31:43.812Z,99.09
2022-11-23T06:34:10.202Z,99.23
2022-11-23T06:36:36.681Z,99.15
2022-11-23T06:39:13.212Z,99.54
2022-11-23T06:41:40.765Z,100.00
2022-11-23T06:44:07.209Z,100.00
2022-11-23T06:46:34.742Z,100.00
2022-11-23T06:49:01.218Z,99.86
2022-11-23T06:51:36.747Z,100.00
2022-11-23T06:54:03.498Z,100.00
2022-11-23T06:56:31.812Z,99.90
2022-11-23T06:58:58.454Z,99.90
2022-11-23T07:01:24.898Z,100.00
2022-11-23T07:03:51.504Z,100.00
2022-11-23T07:06:17.956Z,100.00
2022-11-23T07:08:45.385Z,100.00
2022-11-23T07:11:19.049Z,100.00
2022-11-23T07:13:45.480Z,100.00
2022-11-23T07:16:11.898Z,100.00
2022-11-23T07:18:38.334Z,100.00
2022-11-23T07:21:04.757Z,100.00
2022-11-23T07:23:31.206Z,100.00
2022-11-23T07:25:57.641Z,100.00
2022-11-23T07:28:24.099Z,100.00
2022-11-23T07:30:52.577Z,100.00
2022-11-23T07:33:19.184Z,100.00
2022-11-23T07:35:45.669Z,100.00
2022-11-23T07:38:12.162Z,100.00
2022-11-23T07:40:39.531Z,100.00
2022-11-23T07:43:06.837Z,100.00
2022-11-23T07:45:34.053Z,100.00
2022-11-23T07:48:05.424Z,100.00
2022-11-23T07:50:32.934Z,100.00
2022-11-23T07:53:01.749Z,100.00
2022-11-23T07:55:28.542Z,100.00
2022-11-23T07:57:55.066Z,100.00
2022-11-23T08:00:22.949Z,100.00
2022-11-23T08:03:19.416Z,100.00
2022-11-23T08:05:36.266Z,100.00
2022-11-23T08:08:03.246Z,100.00
2022-11-23T08:10:31.399Z,100.00
2022-11-23T08:13:02.966Z,99.94
2022-11-23T08:15:29.494Z,99.28
2022-11-23T08:18:01.433Z,98.73
2022-11-23T08:20:29.207Z,98.24
2022-11-23T08:23:05.570Z,98.55
2022-11-23T08:25:31.953Z,98.53
2022-11-23T08:28:00.562Z,98.14
2022-11-23T08:30:29.077Z,98.15
2022-11-23T08:32:55.851Z,97.61
2022-11-23T08:35:22.381Z,96.61
2022-11-23T08:37:48.866Z,97.09
2022-11-23T08:40:16.653Z,95.96
2022-11-23T08:42:46.941Z,94.75
2022-11-23T08:45:13.419Z,95.08
2022-11-23T08:47:39.794Z,94.15
2022-11-23T08:50:06.782Z,94.66
2022-11-23T08:52:33.194Z,92.80
2022-11-23T08:54:59.657Z,91.88
2022-11-23T08:57:27.337Z,91.24
2022-11-23T08:59:53.781Z,90.71
2022-11-23T09:02:20.191Z,88.49
2022-11-23T09:04:46.716Z,87.62
2022-11-23T09:07:13.186Z,88.13
2022-11-23T09:09:39.719Z,87.33
2022-11-23T09:12:06.790Z,88.22
2022-11-23T09:14:33.687Z,87.21
2022-11-23T09:17:01.884Z,86.48
2022-11-23T09:19:28.440Z,82.90
2022-11-23T09:21:54.885Z,82.88
2022-11-23T09:24:33.851Z,81.55
2022-11-23T09:27:00.733Z,81.45
2022-11-23T09:29:27.407Z,81.11
2022-11-23T09:31:54.123Z,80.61
2022-11-23T09:34:20.729Z,80.09
2022-11-23T09:36:47.783Z,80.09
2022-11-23T09:39:14.328Z,79.22
2022-11-23T09:42:22.357Z,77.34
2022-11-23T09:45:08.794Z,79.74
2022-11-23T09:48:02.590Z,77.67
2022-11-23T09:50:56.513Z,76.58
2022-11-23T09:53:28.068Z,75.54
2022-11-23T09:55:57.793Z,74.90
2022-11-23T09:58:30.336Z,76.19
2022-11-23T10:01:12.893Z,73.87
2022-11-23T10:03:46.984Z,74.38
2022-11-23T10:06:29.901Z,74.73
2022-11-23T10:09:02.336Z,72.00
2022-11-23T10:12:05.225Z,72.51
2022-11-23T10:14:37.876Z,69.02
2022-11-23T10:17:15.173Z,71.04
2022-11-23T10:19:54.129Z,71.46
2022-11-23T10:22:27.114Z,71.25
2022-11-23T10:24:54.096Z,69.43
2022-11-23T10:27:24.081Z,69.13
2022-11-23T10:29:52.567Z,70.51
2022-11-23T10:32:33.960Z,69.59
2022-11-23T10:35:32.399Z,69.16
2022-11-23T10:38:19.818Z,69.77
2022-11-23T10:41:10.606Z,69.74
2022-11-23T10:44:01.409Z,67.90
2022-11-23T10:46:38.430Z,67.79
2022-11-23T10:49:19.270Z,68.74
2022-11-23T10:52:05.752Z,68.78
2022-11-23T10:54:35.132Z,68.90
2022-11-23T10:57:20.640Z,70.41
2022-11-23T11:00:12.989Z,68.88
2022-11-23T11:02:51.690Z,66.14
2022-11-23T11:05:53.448Z,68.23
2022-11-23T11:08:16.993Z,68.65
2022-11-23T11:10:45.594Z,66.21
2022-11-23T11:13:21.774Z,66.48
2022-11-23T11:16:21.074Z,66.34
2022-11-23T11:18:47.588Z,65.43
2022-11-23T11:21:29.961Z,66.57
2022-11-23T11:23:59.770Z,65.13
2022-11-23T11:26:28.806Z,65.85
2022-11-23T11:28:57.963Z,65.65
2022-11-23T11:31:52.287Z,64.43
2022-11-23T11:34:31.067Z,63.51
2022-11-23T11:37:06.060Z,62.61
2022-11-23T11:39:39.978Z,62.01
2022-11-23T11:42:13.784Z,64.61
2022-11-23T11:44:49.813Z,61.73
2022-11-23T11:47:22.631Z,62.84
2022-11-23T11:49:52.200Z,62.32
2022-11-23T11:52:23.784Z,61.95
2022-11-23T11:55:05.622Z,65.32
2022-11-23T11:57:51.880Z,64.67
2022-11-23T12:00:20.273Z,62.60
2022-11-23T12:03:03.558Z,61.78
2022-11-23T12:05:43.237Z,62.89
2022-11-23T12:08:25.468Z,62.42
2022-11-23T12:10:58.033Z,61.06
2022-11-23T12:13:37.030Z,60.55
2022-11-23T12:16:25.237Z,58.85
2022-11-23T12:19:24.771Z,58.51
2022-11-23T12:22:10.201Z,61.57
2022-11-23T12:24:55.525Z,58.08
2022-11-23T12:27:29.196Z,60.51
2022-11-23T12:30:29.626Z,55.29
2022-11-23T12:33:30.156Z,55.10
2022-11-23T12:36:25.498Z,57.30
2022-11-23T12:39:20.092Z,56.91
2022-11-23T12:42:11.754Z,54.19
2022-11-23T12:45:05.100Z,55.44
2022-11-23T12:47:45.249Z,54.61
2022-11-23T12:50:35.473Z,54.49
2022-11-23T12:53:26.347Z,51.99
2022-11-23T12:56:17.306Z,53.57
2022-11-23T12:58:45.040Z,55.45
2022-11-23T13:01:23.308Z,53.19
2022-11-23T13:03:58.961Z,53.60
2022-11-23T13:06:25.298Z,52.21
2022-11-23T13:09:18.770Z,50.37
2022-11-23T13:12:25.966Z,51.54
2022-11-23T13:15:19.762Z,51.74
2022-11-23T13:18:29.167Z,50.37
2022-11-23T13:21:10.239Z,52.17
2022-11-23T13:23:40.967Z,51.67
2022-11-23T13:26:20.300Z,52.91
2022-11-23T13:28:48.398Z,52.17
2022-11-23T13:31:15.751Z,51.87
2022-11-23T13:33:45.032Z,51.90
2022-11-23T13:37:04.333Z,51.21
2022-11-23T13:39:41.047Z,54.17
2022-11-23T13:42:17.891Z,52.86
2022-11-23T13:44:48.597Z,52.52
2022-11-23T13:47:24.447Z,52.63
2022-11-23T13:50:23.639Z,54.27
2022-11-23T13:52:51.239Z,53.75
2022-11-23T13:55:47.564Z,55.01
2022-11-23T13:58:26.362Z,53.56
2022-11-23T14:00:54.184Z,54.32
2022-11-23T14:03:42.658Z,53.29
2022-11-23T14:06:33.724Z,53.12
2022-11-23T14:09:25.795Z,54.06
2022-11-23T14:12:13.146Z,51.65
2022-11-23T14:14:57.249Z,51.74
2022-11-23T14:17:58.999Z,53.39
2022-11-23T14:20:46.795Z,54.02
2022-11-23T14:23:51.510Z,52.40
2022-11-23T14:26:52.099Z,51.79
2022-11-23T14:29:29.811Z,53.68
2022-11-23T14:32:14.461Z,52.63
2022-11-23T14:35:19.826Z,52.74
2022-11-23T14:38:18.482Z,55.17
2022-11-23T14:40:53.439Z,54.83
2022-11-23T14:43:35.781Z,58.78
2022-11-23T14:46:04.543Z,57.32
2022-11-23T14:48:33.297Z,59.02
2022-11-23T14:51:01.354Z,58.74
2022-11-23T14:53:33.135Z,60.30
2022-11-23T14:56:01.239Z,60.16
2022-11-23T14:58:31.481Z,61.86
2022-11-23T15:01:02.233Z,63.58
2022-11-23T15:06:24.992Z,63.59
2022-11-23T15:09:35.832Z,63.64
2022-11-23T15:12:48.759Z,66.28
2022-11-23T15:15:26.912Z,67.52
2022-11-23T15:18:00.578Z,68.70
2022-11-23T15:20:46.650Z,67.13
2022-11-23T15:23:24.745Z,66.39
2022-11-23T15:25:57.553Z,67.71
2022-11-23T15:28:27.578Z,66.39
2022-11-23T15:30:58.883Z,67.30
2022-11-23T15:33:26.149Z,69.18
2022-11-23T15:35:55.118Z,70.15
2022-11-23T15:38:24.300Z,70.31
2022-11-23T15:40:54.103Z,70.09
2022-11-23T15:43:20.621Z,71.53
2022-11-23T15:45:47.047Z,70.93
2022-11-23T15:48:17.329Z,71.67
2022-11-23T15:50:54.208Z,72.59
2022-11-23T15:53:32.446Z,73.54
2022-11-23T15:56:02.760Z,72.71
2022-11-23T15:58:30.979Z,72.66
2022-11-23T16:01:13.263Z,74.10
2022-11-23T16:03:39.734Z,74.77
2022-11-23T16:06:15.922Z,75.23
2022-11-23T16:08:42.348Z,76.73
2022-11-23T16:11:43.922Z,76.47
2022-11-23T16:14:11.356Z,76.67
2022-11-23T16:17:05.876Z,77.21
2022-11-23T16:19:34.007Z,78.04
2022-11-23T16:22:06.984Z,79.37
2022-11-23T16:24:36.038Z,80.07
2022-11-23T16:27:13.475Z,80.93
2022-11-23T16:29:40.282Z,81.26
2022-11-23T16:32:28.727Z,81.94
2022-11-23T16:35:20.380Z,81.02
2022-11-23T16:37:52.936Z,81.53
2022-11-23T16:40:19.848Z,83.09
2022-11-23T16:42:51.883Z,83.46
2022-11-23T16:45:19.774Z,82.96
2022-11-23T16:48:00.659Z,82.20
2022-11-23T16:50:29.800Z,82.27
2022-11-23T16:52:56.394Z,82.08
2022-11-23T16:55:22.828Z,82.12
2022-11-23T16:57:49.634Z,81.63
2022-11-23T17:00:19.087Z,81.29
2022-11-23T17:02:45.992Z,80.80
2022-11-23T17:05:18.826Z,80.18
2022-11-23T17:07:45.693Z,79.53
2022-11-23T17:10:16.462Z,78.98
2022-11-23T17:12:53.157Z,78.79
2022-11-23T17:15:21.775Z,78.51
2022-11-23T17:17:48.687Z,77.49
2022-11-23T17:20:16.590Z,77.20
2022-11-23T17:22:43.399Z,76.85
2022-11-23T17:25:22.391Z,75.25
2022-11-23T17:27:48.911Z,75.50
2022-11-23T17:30:22.175Z,75.54
2022-11-23T17:32:49.648Z,77.21
2022-11-23T17:35:16.934Z,77.64
2022-11-23T17:37:43.848Z,77.59
2022-11-23T17:40:15.776Z,77.44
2022-11-23T17:42:42.387Z,78.49
2022-11-23T17:45:09.395Z,77.06
2022-11-23T17:47:38.118Z,76.14
2022-11-23T17:50:07.210Z,77.44
2022-11-23T17:52:33.783Z,78.47
2022-11-23T17:55:00.228Z,77.96
2022-11-23T17:57:28.759Z,78.96
2022-11-23T17:59:57.364Z,77.11
2022-11-23T18:02:25.812Z,75.82
2022-11-23T18:04:52.385Z,77.30
2022-11-23T18:07:25.867Z,74.39
2022-11-23T18:09:54.414Z,69.12
2022-11-23T18:12:23.155Z,66.45
2022-11-23T18:14:49.667Z,68.08
2022-11-23T18:17:16.485Z,65.72
2022-11-23T18:19:42.907Z,67.06
2022-11-23T18:22:09.537Z,66.37
2022-11-23T18:24:45.389Z,70.20
2022-11-23T18:27:13.412Z,73.88
2022-11-23T18:29:40.421Z,81.03
2022-11-23T18:32:08.317Z,82.99
2022-11-23T18:34:41.977Z,87.52
2022-11-23T18:37:08.548Z,92.39
2022-11-23T18:39:35.730Z,95.18
2022-11-23T18:42:05.680Z,96.36
2022-11-23T18:44:49.037Z,98.40
2022-11-23T18:47:15.610Z,97.51
2022-11-23T18:49:42.033Z,97.92
2022-11-23T18:52:09.115Z,98.53
2022-11-23T18:54:35.555Z,98.58
2022-11-23T18:57:01.957Z,98.89
2022-11-23T19:00:01.078Z,98.65
2022-11-23T19:02:17.050Z,99.80
2022-11-23T19:04:43.490Z,98.79
2022-11-23T19:07:13.088Z,100.00
2022-11-23T19:09:49.091Z,100.00
2022-11-23T19:12:16.008Z,100.00
2022-11-23T19:14:48.045Z,100.00
2022-11-23T19:17:19.741Z,100.00
2022-11-23T19:20:03.932Z,100.00
2022-11-23T19:22:33.011Z,100.00
2022-11-23T19:25:07.980Z,100.00
2022-11-23T19:27:37.772Z,100.00
2022-11-23T19:30:05.479Z,100.00
2022-11-23T19:32:33.334Z,100.00
2022-11-23T19:35:02.035Z,100.00
2022-11-23T19:37:29.619Z,100.00
2022-11-23T19:40:07.802Z,100.00
2022-11-23T19:42:37.330Z,100.00
2022-11-23T19:45:10.875Z,100.00
2022-11-23T19:47:37.301Z,100.00
2022-11-23T19:50:04.109Z,100.00
2022-11-23T19:52:55.395Z,100.00
2022-11-23T19:55:32.203Z,100.00
2022-11-23T19:57:58.651Z,100.00
2022-11-23T20:00:25.105Z,100.00
2022-11-23T20:02:51.502Z,100.00
2022-11-23T20:05:17.940Z,100.00
2022-11-23T20:08:10.571Z,100.00
2022-11-23T20:10:37.032Z,100.00
2022-11-23T20:13:10.290Z,100.00
2022-11-23T20:15:36.711Z,100.00
2022-11-23T20:18:03.196Z,100.00
2022-11-23T20:20:31.876Z,100.00
2022-11-23T20:22:58.294Z,100.00
2022-11-23T20:25:24.727Z,100.00
2022-11-23T20:27:51.127Z,100.00
2022-11-23T20:30:25.558Z,100.00
2022-11-23T20:32:52.126Z,100.00
2022-11-23T20:35:18.604Z,100.00
2022-11-23T20:37:45.018Z,100.00
2022-11-23T20:40:13.809Z,100.00
2022-11-23T20:42:40.209Z,100.00
2022-11-23T20:45:06.986Z,100.00
2022-11-23T20:47:33.463Z,100.00
2022-11-23T20:50:00.142Z,100.00
2022-11-23T20:52:29.688Z,100.00
2022-11-23T20:54:56.294Z,100.00
2022-11-23T20:57:22.843Z,100.00
2022-11-23T20:59:49.473Z,100.00
2022-11-23T21:02:16.531Z,100.00
2022-11-23T21:04:43.109Z,100.00
2022-11-23T21:07:09.791Z,100.00
2022-11-23T21:09:36.627Z,100.00
2022-11-23T21:12:21.723Z,100.00
2022-11-23T21:14:48.485Z,100.00
2022-11-23T21:17:24.493Z,100.00
2022-11-23T21:19:50.928Z,100.00
2022-11-23T21:22:18.643Z,100.00
2022-11-23T21:24:45.170Z,100.00
2022-11-23T21:27:13.510Z,100.00
2022-11-23T21:29:46.436Z,100.00
2022-11-23T21:32:20.374Z,100.00
2022-11-23T21:34:47.963Z,100.00
2022-11-23T21:37:15.464Z,100.00
2022-11-23T21:39:45.538Z,100.00
2022-11-23T21:42:16.891Z,100.00
2022-11-23T21:44:43.328Z,100.00
2022-11-23T21:47:09.813Z,100.00
2022-11-23T21:49:36.219Z,100.00
2022-11-23T21:52:09.903Z,100.00
2022-11-23T21:54:36.551Z,100.00
2022-11-23T21:57:05.115Z,100.00
2022-11-23T21:59:31.514Z,100.00
2022-11-23T22:01:58.633Z,100.00
2022-11-23T22:04:25.223Z,100.00
2022-11-23T22:06:51.773Z,100.00
2022-11-23T22:09:18.169Z,100.00
2022-11-23T22:11:46.666Z,98.97
2022-11-23T22:14:15.277Z,98.54
2022-11-23T22:16:43.092Z,99.16
2022-11-23T22:19:11.849Z,98.33
2022-11-23T22:21:39.824Z,98.68
2022-11-23T22:24:07.380Z,97.89
2022-11-23T22:26:34.017Z,97.97
2022-11-23T22:29:06.750Z,97.56
2022-11-23T22:31:34.691Z,96.88
2022-11-23T22:34:03.272Z,96.13
2022-11-23T22:36:33.148Z,96.32
2022-11-23T22:39:02.268Z,96.98
2022-11-23T22:41:30.950Z,96.88
2022-11-23T22:43:57.384Z,97.39
2022-11-23T22:46:25.116Z,97.01
2022-11-23T22:48:52.789Z,97.12
2022-11-23T22:51:23.222Z,97.97
2022-11-23T22:53:57.472Z,97.47
2022-11-23T22:56:24.771Z,97.13
2022-11-23T22:58:51.419Z,96.16
2022-11-23T23:01:20.730Z,96.81
2022-11-23T23:03:47.648Z,96.58
2022-11-23T23:06:20.433Z,96.13
2022-11-23T23:08:48.093Z,96.31
2022-11-23T23:11:15.657Z,96.85
2022-11-23T23:13:42.177Z,97.13
2022-11-23T23:16:11.726Z,96.16
2022-11-23T23:18:38.780Z,96.25
2022-11-23T23:21:14.336Z,96.27
2022-11-23T23:23:46.287Z,97.65
2022-11-23T23:26:14.509Z,98.77
2022-11-23T23:28:41.255Z,99.22
2022-11-23T23:31:10.941Z,98.58
2022-11-23T23:33:37.522Z,98.75
2022-11-23T23:36:09.470Z,98.85
2022-11-23T23:38:37.243Z,98.03
2022-11-23T23:41:05.106Z,97.15
2022-11-23T23:43:31.828Z,97.03
2022-11-23T23:45:59.781Z,98.44
2022-11-23T23:48:33.929Z,99.43
2022-11-23T23:51:12.705Z,99.08
2022-11-23T23:53:39.559Z,99.30
2022-11-23T23:56:08.578Z,99.53
2022-11-23T23:58:35.600Z,99.49
